Time;durP1;ratioP1;P1;durP2;ratioP2;P2;SDS_P1;SDS_P2;PMS_P1;PMS_P2;Temp;Humidity;BMP_temperature;BMP_pressure;BME280_temperature;BME280_humidity;BME280_pressure;Samples;Min_cycle;Max_cycle;Signal;HPM_P1;HPM_P2
2023/04/11 00:02:54;;;;;;;56.60;30.30;;;;;;;7.51;82.48;100586.92;105607;1254;69233;-56
2023/04/11 00:06:04;;;;;;;64.30;31.60;;;;;;;7.48;82.54;100581.95;105567;1251;74062;-59
2023/04/11 00:09:19;;;;;;;63.10;31.30;;;;;;;7.46;82.55;100577.48;105450;1251;82586;-55
2023/04/11 00:12:17;;;;;;;;;;;;;;;;;;;;;
2023/04/11 00:16:02;;;;;;;;;;;;;;;;;;;;;
2023/04/11 00:19:11;;;;;;;51.20;28.70;;;;;;;7.39;82.93;100561.81;105589;1254;69198;-57
2023/04/11 00:22:26;;;;;;;48.40;28.00;;;;;;;7.35;83.02;100561.70;105637;1251;73906;-53
2023/04/11 00:25:35;;;;;;;;;;;;;;;;;;;;;
2023/04/11 00:28:54;;;;;;;49.80;30.70;;;;;;;7.27;83.51;100563.96;105552;1251;73657;-57
2023/04/11 00:32:31;;;;;;;51.60;30.10;;;;;;;7.28;83.74;100562.55;105493;1254;69218;-54
2023/04/11 00:35:38;;;;;;;53.40;29.60;;;;;;;7.31;83.91;100558.66;105616;1251;69218;-54
2023/04/11 00:38:35;;;;;;;59.70;33.20;;;;;;;7.32;84.05;100553.61;105593;1251;74029;-55
2023/04/11 00:41:46;;;;;;;73.10;37.10;;;;;;;7.30;84.00;100547.56;105593;1251;83166;-56
2023/04/11 00:45:00;;;;;;;57.60;30.40;;;;;;;7.32;84.07;100541.97;105556;1255;73537;-56
2023/04/11 00:48:27;;;;;;;;;;;;;;;;;;;;;
2023/04/11 00:51:21;;;;;;;45.90;27.60;;;;;;;7.29;83.84;100531.09;105620;1251;69049;-55
2023/04/11 00:54:49;;;;;;;;;;;;;;;;;;;;;
2023/04/11 00:57:56;;;;;;;58.00;31.30;;;;;;;7.23;83.80;100516.95;105616;1257;83525;-57
2023/04/11 01:01:28;;;;;;;64.90;34.30;;;;;;;7.14;83.70;100511.75;105582;1255;73487;-54
2023/04/11 01:04:44;;;;;;;;;;;;;;;;;;;;;
2023/04/11 01:08:11;;;;;;;79.90;38.60;;;;;;;6.97;83.77;100500.46;105496;1256;69193;-58
2023/04/11 01:11:19;;;;;;;58.20;32.60;;;;;;;6.91;84.10;100492.23;105559;1251;74163;-58
2023/04/11 01:15:09;;;;;;;61.30;33.40;;;;;;;6.85;83.82;100489.59;105608;1251;83453;-59
2023/04/11 01:18:09;;;;;;;65.20;33.20;;;;;;;6.79;84.11;100479.65;105627;1257;72837;-58
2023/04/11 01:21:19;;;;;;;66.60;33.50;;;;;;;6.77;84.10;100477.79;105629;1254;69240;-54
2023/04/11 01:27:38;;;;;;;;;;;;;;;;;;;;;
2023/04/11 01:30:48;;;;;;;;;;;;;;;;;;;;;
2023/04/11 01:33:57;;;;;;;61.70;32.80;;;;;;;6.63;84.46;100461.37;105626;1250;73888;-55
2023/04/11 01:37:18;;;;;;;;;;;;;;;;;;;;;
2023/04/11 01:40:31;;;;;;;65.90;36.20;;;;;;;6.51;84.71;100456.40;105458;1257;69208;-53
2023/04/11 01:43:44;;;;;;;63.20;33.60;;;;;;;6.48;85.05;100450.55;105496;1251;73162;-53
2023/04/11 01:47:09;;;;;;;69.20;34.90;;;;;;;6.47;85.31;100445.55;105541;1251;81670;-58
2023/04/11 01:50:18;;;;;;;67.50;34.70;;;;;;;6.46;85.54;100437.25;105506;1254;72736;-56
2023/04/11 01:53:44;;;;;;;;;;;;;;;;;;;;;
2023/04/11 01:56:57;;;;;;;46.20;27.90;;;;;;;6.47;85.55;100439.64;105466;1256;69276;-56
2023/04/11 01:59:51;;;;;;;48.20;28.10;;;;;;;6.47;85.54;100438.25;105485;1251;74214;-58
2023/04/11 02:02:46;;;;;;;57.90;30.70;;;;;;;6.46;85.84;100437.74;105493;1257;82433;-56
2023/04/11 02:06:33;;;;;;;;;;;;;;;;;;;;;
2023/04/11 02:09:52;;;;;;;50.70;30.30;;;;;;;6.45;85.92;100430.13;105571;1254;69119;-58
2023/04/11 02:13:01;;;;;;;61.70;32.60;;;;;;;6.49;86.58;100426.60;105574;1255;69306;-55
2023/04/11 02:16:06;;;;;;;54.60;31.70;;;;;;;6.53;86.84;100422.52;105586;1254;73651;-57
2023/04/11 02:19:23;;;;;;;55.50;32.10;;;;;;;6.57;86.63;100419.13;105637;1254;83326;-57
2023/04/11 02:22:19;;;;;;;52.30;31.60;;;;;;;6.60;86.56;100407.44;105479;1251;73437;-55
2023/04/11 02:25:23;;;;;;;57.50;33.20;;;;;;;6.61;86.39;100400.98;105604;1254;69746;-58
2023/04/11 02:28:36;;;;;;;53.60;32.80;;;;;;;6.62;86.61;100396.80;105632;1256;69135;-54
2023/04/11 02:31:51;;;;;;;52.20;31.20;;;;;;;6.63;86.52;100391.05;105611;1251;74551;-55
2023/04/11 02:35:03;;;;;;;49.50;30.90;;;;;;;6.62;86.57;100385.71;105546;1254;83253;-58
2023/04/11 02:38:15;;;;;;;56.80;32.80;;;;;;;6.61;86.54;100383.98;105564;1251;73625;-55
2023/04/11 02:41:18;;;;;;;55.50;31.20;;;;;;;6.61;86.66;100381.20;105509;1251;69185;-52
2023/04/11 02:44:31;;;;;;;52.60;30.50;;;;;;;6.61;86.56;100374.42;105594;1254;69118;-59
2023/04/11 02:47:42;;;;;;;52.90;30.20;;;;;;;6.63;86.83;100370.58;105605;1251;74089;-55
2023/04/11 02:50:43;;;;;;;;;;;;;;;6.63;86.94;100362.41;105558;1251;81763;-55
2023/04/11 02:53:59;;;;;;;54.40;32.40;;;;;;;6.62;86.99;100357.22;105462;1256;73983;-56
2023/04/11 02:57:20;;;;;;;54.00;32.30;;;;;;;6.60;87.05;100352.25;105540;1254;69256;-57
2023/04/11 03:00:11;;;;;;;57.00;32.30;;;;;;;6.59;87.07;100343.57;105632;1251;69205;-55
2023/04/11 03:03:24;;;;;;;54.70;31.70;;;;;;;6.58;87.01;100338.21;105816;1251;72777;-56
2023/04/11 03:06:48;;;;;;;50.90;29.40;;;;;;;6.57;86.96;100337.37;105661;1254;83351;-60
2023/04/11 03:09:51;;;;;;;;;;;;;;;;;;;;;
2023/04/11 03:16:17;;;;;;;51.70;29.40;;;;;;;6.54;87.23;100335.52;105797;1255;69186;-55
2023/04/11 03:19:21;;;;;;;49.10;28.90;;;;;;;6.58;87.36;100337.70;105658;1251;74331;-61
2023/04/11 03:22:41;;;;;;;47.30;28.10;;;;;;;6.63;87.52;100336.38;105612;1251;83490;-54
2023/04/11 03:26:08;;;;;;;42.40;25.00;;;;;;;6.70;87.77;100329.27;105565;1254;73171;-56
2023/04/11 03:29:21;;;;;;;;;;;;;;;;;;;;;
2023/04/11 03:33:08;;;;;;;48.60;28.00;;;;;;;6.82;87.48;100314.77;105479;1251;69229;-54
2023/04/11 03:36:06;;;;;;;41.80;26.60;;;;;;;6.82;87.55;100306.23;105600;1257;73036;-54
2023/04/11 03:39:13;;;;;;;64.40;33.40;;;;;;;6.82;87.38;100309.70;105648;1251;82593;-53
2023/04/11 03:42:35;;;;;;;;;;;;;;;;;;;;;
2023/04/11 03:45:41;;;;;;;57.50;29.50;;;;;;;6.81;87.32;100298.11;105469;1252;69243;-54
2023/04/11 03:49:11;;;;;;;39.20;25.40;;;;;;;6.84;87.03;100294.73;105506;1254;69275;-53
2023/04/11 03:52:36;;;;;;;40.50;24.90;;;;;;;6.85;86.95;100287.07;105543;1256;74408;-56
2023/04/11 03:55:44;;;;;;;50.50;28.40;;;;;;;6.84;86.86;100281.88;105499;1251;82635;-58
2023/04/11 03:58:47;;;;;;;45.00;26.60;;;;;;;6.83;86.89;100280.02;105469;1255;73012;-54
2023/04/11 04:01:49;;;;;;;46.40;28.10;;;;;;;6.81;86.94;100278.30;105580;1251;69090;-56
2023/04/11 04:05:06;;;;;;;39.80;25.40;;;;;;;6.79;86.83;100273.31;105566;1256;69074;-53
2023/04/11 04:08:20;;;;;;;50.10;27.70;;;;;;;6.78;86.73;100270.23;105574;1257;73280;-52
2023/04/11 04:14:52;;;;;;;43.10;27.40;;;;;;;6.68;86.95;100236.77;105603;1257;73474;-58
2023/04/11 04:18:04;;;;;;;;;;;;;;;;;;;;;
2023/04/11 04:21:49;;;;;;;;;;;;;;;;;;;;;
2023/04/11 04:24:54;;;;;;;;;;;;;;;;;;;;;
2023/04/11 04:28:23;;;;;;;;;;;;;;;;;;;;;
2023/04/11 04:31:30;;;;;;;42.50;25.70;;;;;;;6.43;86.74;100243.59;105636;1251;73078;-55
2023/04/11 04:35:31;;;;;;;40.60;25.90;;;;;;;6.40;87.14;100226.46;105476;1251;69233;-51
2023/04/11 04:38:31;;;;;;;40.00;23.90;;;;;;;6.38;87.02;100209.67;105788;1255;69162;-54
2023/04/11 04:41:43;;;;;;;42.20;25.20;;;;;;;6.40;87.41;100201.48;105687;1251;74165;-54
2023/04/11 04:45:12;;;;;;;39.90;24.30;;;;;;;6.43;87.26;100188.39;105836;1251;83553;-54
2023/04/11 04:48:32;;;;;;;40.90;23.30;;;;;;;6.47;87.36;100177.02;105360;1251;73803;-53
2023/04/11 04:52:00;;;;;;;40.60;25.30;;;;;;;6.51;87.32;100176.23;105494;1251;69172;-53
2023/04/11 04:55:28;;;;;;;;;;;;;;;;;;;;;
2023/04/11 04:58:44;;;;;;;;;;;;;;;;;;;;;
2023/04/11 05:02:19;;;;;;;34.80;23.30;;;;;;;6.59;87.42;100155.39;105683;1251;82525;-56
2023/04/11 05:05:36;;;;;;;38.10;24.60;;;;;;;6.63;87.19;100141.56;105557;1251;72552;-54
2023/04/11 05:08:58;;;;;;;36.20;23.30;;;;;;;6.67;87.25;100138.86;105407;1257;69156;-52
2023/04/11 05:12:26;;;;;;;;;;;;;;;;;;;;;
2023/04/11 05:15:59;;;;;;;;;;;;;;;;;;;;;
2023/04/11 05:19:32;;;;;;;29.40;19.70;;;;;;;6.77;86.89;100123.14;105507;1254;84557;-56
2023/04/11 05:22:46;;;;;;;27.80;18.80;;;;;;;6.85;87.26;100118.24;102983;1254;3397140;-52
2023/04/11 05:25:58;;;;;;;32.00;19.30;;;;;;;6.91;87.15;100119.48;105474;1253;69096;-57
2023/04/11 05:29:35;;;;;;;31.80;21.50;;;;;;;6.97;87.13;100111.16;105531;1254;69186;-51
2023/04/11 05:32:43;;;;;;;30.20;19.90;;;;;;;7.03;87.02;100107.36;105365;1256;73160;-55
2023/04/11 05:35:52;;;;;;;;;;;;;;;;;;;;;
2023/04/11 05:38:52;;;;;;;29.10;18.30;;;;;;;7.17;87.04;100098.27;105608;1259;73850;-55
2023/04/11 05:42:04;;;;;;;28.30;17.80;;;;;;;7.25;87.04;100097.88;105402;1252;69201;-52
2023/04/11 05:45:19;;;;;;;27.30;17.80;;;;;;;7.33;86.80;100090.69;105492;1254;69141;-55
2023/04/11 05:48:30;;;;;;;27.20;17.10;;;;;;;7.43;86.92;100094.42;105467;1254;74098;-55
2023/04/11 05:51:32;;;;;;;26.30;17.80;;;;;;;7.51;86.60;100088.95;105505;1254;82454;-56
2023/04/11 05:54:14;;;;;;;38.40;22.40;;;;;;;7.58;86.55;100086.16;105578;1256;72554;-52
2023/04/11 05:57:09;;;;;;;54.40;31.10;;;;;;;7.61;86.37;100090.06;105651;1255;70021;-50
2023/04/11 05:59:53;;;;;;;32.50;21.20;;;;;;;7.64;86.27;100085.45;105607;1254;70005;-48
2023/04/11 06:02:39;;;;;;;30.50;20.90;;;;;;;7.64;85.93;100087.73;105681;1256;73448;-48
2023/04/11 06:05:30;;;;;;;31.90;19.70;;;;;;;7.65;86.03;100086.65;105790;1256;83459;-48
2023/04/11 06:08:12;;;;;;;29.00;19.00;;;;;;;7.68;85.99;100084.29;105598;1256;73668;-49
2023/04/11 06:10:49;;;;;;;26.70;18.10;;;;;;;7.72;85.98;100075.64;105583;1254;70082;-52
2023/04/11 06:13:31;;;;;;;27.30;18.10;;;;;;;7.77;85.88;100072.36;105656;1254;69072;-50
2023/04/11 06:16:09;;;;;;;25.40;18.50;;;;;;;7.80;85.67;100067.41;105623;1255;73403;-49
2023/04/11 06:18:53;;;;;;;29.70;19.00;;;;;;;7.84;85.39;100062.93;105611;1255;83544;-49
2023/04/11 06:21:37;;;;;;;31.30;19.70;;;;;;;7.87;85.35;100061.98;105720;1254;73216;-49
2023/04/11 06:24:17;;;;;;;32.70;20.20;;;;;;;7.88;85.49;100058.80;105636;1254;69940;-49
2023/04/11 06:26:49;;;;;;;31.10;20.10;;;;;;;7.91;85.23;100058.20;105594;1254;69810;-49
2023/04/11 06:29:29;;;;;;;34.20;22.40;;;;;;;7.94;85.27;100056.02;105612;1254;73886;-51
2023/04/11 06:32:19;;;;;;;;;;;;;;;;;;;;;
2023/04/11 06:34:55;;;;;;;59.30;31.90;;;;;;;8.01;84.82;100048.46;105614;1254;73825;-49
2023/04/11 06:37:41;;;;;;;41.40;22.40;;;;;;;8.03;84.51;100052.38;105679;1256;70075;-51
2023/04/11 06:40:19;;;;;;;36.80;22.10;;;;;;;8.06;84.64;100050.91;105588;1255;69983;-51
2023/04/11 06:42:56;;;;;;;33.90;21.10;;;;;;;8.05;84.64;100048.34;105709;1254;74060;-48
2023/04/11 06:45:31;;;;;;;31.70;21.20;;;;;;;8.05;84.69;100039.80;105490;1256;83237;-49
2023/04/11 06:48:11;;;;;;;31.50;21.50;;;;;;;8.08;84.69;100038.83;105569;1252;72649;-52
2023/04/11 06:50:49;;;;;;;37.90;25.10;;;;;;;8.13;84.71;100035.73;105566;1256;70028;-51
2023/04/11 06:53:26;;;;;;;37.20;24.10;;;;;;;8.17;84.65;100034.73;105524;1258;69928;-50
2023/04/11 06:56:00;;;;;;;40.20;26.10;;;;;;;8.23;84.58;100032.77;105511;1254;73766;-51
2023/04/11 06:58:39;;;;;;;36.30;26.80;;;;;;;8.30;84.40;100025.23;105947;1254;83142;-49
2023/04/11 07:01:15;;;;;;;37.00;26.50;;;;;;;8.36;84.34;100023.98;105543;1253;72764;-51
2023/04/11 07:03:52;;;;;;;38.00;25.30;;;;;;;8.43;84.31;100026.23;105579;1254;70376;-51
2023/04/11 07:06:27;;;;;;;40.20;26.70;;;;;;;8.49;84.24;100015.76;105674;1254;70085;-50
2023/04/11 07:08:59;;;;;;;44.30;33.10;;;;;;;8.54;84.12;100011.55;105645;1256;74047;-49
2023/04/11 07:11:43;;;;;;;40.10;29.10;;;;;;;8.57;84.04;100009.01;105637;1254;83498;-54
2023/04/11 07:14:18;;;;;;;41.90;29.40;;;;;;;8.60;83.80;100008.24;105787;1254;72802;-52
2023/04/11 07:16:58;;;;;;;36.70;26.50;;;;;;;8.63;83.83;100006.55;106033;1252;69230;-52
2023/04/11 07:19:34;;;;;;;43.30;28.40;;;;;;;8.68;83.67;100002.03;105651;1251;69068;-53
2023/04/11 07:22:06;;;;;;;47.10;30.80;;;;;;;8.73;83.73;99998.16;106040;1253;73392;-50
2023/04/11 07:24:45;;;;;;;72.70;46.60;;;;;;;8.80;83.70;99997.92;105781;1251;83582;-51
2023/04/11 07:27:22;;;;;;;76.30;47.20;;;;;;;8.87;83.66;99994.72;105817;1252;71783;-54
2023/04/11 07:30:00;;;;;;;44.20;27.10;;;;;;;8.95;83.69;99995.11;106033;1251;69892;-54
2023/04/11 07:32:34;;;;;;;38.20;24.10;;;;;;;8.99;83.45;99999.17;105649;1254;69198;-50
2023/04/11 07:35:08;;;;;;;33.60;21.90;;;;;;;9.04;83.45;99990.61;105645;1251;74176;-53
2023/04/11 07:37:47;;;;;;;37.40;24.40;;;;;;;9.10;83.45;99985.66;105609;1256;83175;-50
2023/04/11 07:40:22;;;;;;;49.30;32.70;;;;;;;9.22;83.39;99984.52;105622;1254;73810;-51
2023/04/11 07:42:56;;;;;;;34.40;24.30;;;;;;;9.31;83.11;99981.90;105573;1251;69071;-52
2023/04/11 07:45:28;;;;;;;67.20;38.40;;;;;;;9.42;83.19;99975.91;105640;1251;69176;-54
2023/04/11 07:48:00;;;;;;;76.70;38.20;;;;;;;9.53;82.93;99979.30;105792;1251;74055;-54
2023/04/11 07:50:32;;;;;;;45.10;24.30;;;;;;;9.63;82.68;99980.83;106116;1253;83516;-54
2023/04/11 07:53:03;;;;;;;41.20;23.60;;;;;;;9.72;82.46;99984.33;105853;1251;73865;-53
2023/04/11 07:55:36;;;;;;;43.00;26.00;;;;;;;9.78;82.47;99979.88;105684;1251;69832;-52
2023/04/11 07:58:07;;;;;;;29.60;20.50;;;;;;;9.86;82.55;99983.90;105889;1253;69879;-49
2023/04/11 08:00:39;;;;;;;35.60;21.60;;;;;;;9.92;82.17;99981.41;106157;1251;74165;-53
2023/04/11 08:03:12;;;;;;;39.80;23.20;;;;;;;9.99;82.01;99976.57;105684;1254;83398;-53
2023/04/11 08:05:41;;;;;;;44.40;29.00;;;;;;;10.10;81.76;99969.14;105765;1254;74533;-53
2023/04/11 08:08:13;;;;;;;33.10;25.80;;;;;;;10.20;81.34;99963.29;105685;1251;69188;-52
2023/04/11 08:10:50;;;;;;;35.70;25.60;;;;;;;10.31;81.54;99959.73;105912;1253;69890;-51
2023/04/11 08:13:20;;;;;;;31.10;19.50;;;;;;;10.45;81.06;99961.75;105730;1251;74044;-55
2023/04/11 08:15:54;;;;;;;33.30;21.40;;;;;;;10.57;80.79;99957.55;105566;1254;82983;-52
2023/04/11 08:18:28;;;;;;;42.00;28.60;;;;;;;10.74;80.89;99958.02;105580;1254;74993;-52
2023/04/11 08:20:57;;;;;;;32.20;21.90;;;;;;;10.93;80.73;99959.77;105655;1256;69173;-53
2023/04/11 08:23:30;;;;;;;30.20;19.80;;;;;;;11.05;80.15;99956.29;105614;1255;69108;-52
2023/04/11 08:26:02;;;;;;;26.10;18.90;;;;;;;11.12;79.71;99959.77;106257;1251;74117;-53
2023/04/11 08:28:33;;;;;;;23.50;18.60;;;;;;;11.17;79.42;99958.68;105796;1254;83435;-55
2023/04/11 08:31:04;;;;;;;26.90;19.30;;;;;;;11.19;78.86;99957.03;105744;1254;74435;-53
2023/04/11 08:33:40;;;;;;;25.70;18.70;;;;;;;11.24;78.96;99961.17;105884;1256;69887;-55
2023/04/11 08:36:16;;;;;;;24.60;17.60;;;;;;;11.34;78.63;99969.79;105748;1253;69157;-57
2023/04/11 08:38:55;;;;;;;28.70;17.80;;;;;;;11.40;78.43;99961.80;105719;1251;74074;-58
2023/04/11 08:41:33;;;;;;;23.50;17.90;;;;;;;11.56;78.49;99958.23;105775;1251;83270;-60
2023/04/11 08:44:17;;;;;;;24.30;17.90;;;;;;;11.74;78.55;99951.41;105708;1253;73819;-57
2023/04/11 08:47:00;;;;;;;22.10;16.90;;;;;;;11.93;78.30;99948.90;105697;1250;70395;-57
2023/04/11 08:49:38;;;;;;;22.20;17.10;;;;;;;12.02;77.77;99946.55;105728;1254;69192;-59
2023/04/11 08:52:22;;;;;;;20.10;15.90;;;;;;;12.16;77.34;99945.88;105850;1251;74157;-61
2023/04/11 08:54:57;;;;;;;23.00;15.70;;;;;;;12.25;76.97;99943.10;105682;1253;83435;-58
2023/04/11 08:57:37;;;;;;;23.60;19.10;;;;;;;12.37;76.94;99942.15;105705;1254;72613;-62
2023/04/11 09:00:31;;;;;;;;;;;;;;;;;;;;;
2023/04/11 09:03:07;;;;;;;24.00;16.10;;;;;;;12.62;76.22;99942.61;105605;1251;69461;-60
2023/04/11 09:05:49;;;;;;;22.10;16.30;;;;;;;12.69;75.77;99936.63;105713;1252;74224;-57
2023/04/11 09:08:20;;;;;;;22.70;15.90;;;;;;;12.75;75.58;99938.75;105737;1254;83331;-57
2023/04/11 09:11:00;;;;;;;22.40;16.00;;;;;;;12.82;75.56;99939.80;105682;1252;73834;-59
2023/04/11 09:13:39;;;;;;;17.30;14.30;;;;;;;12.86;75.29;99934.15;105932;1254;69134;-60
2023/04/11 09:16:12;;;;;;;19.20;14.70;;;;;;;12.90;75.02;99931.43;105682;1252;69080;-61
2023/04/11 09:18:49;;;;;;;20.20;15.40;;;;;;;12.87;74.52;99930.55;105791;1254;71821;-57
2023/04/11 09:21:32;;;;;;;;;;;;;;;;;;;;;
2023/04/11 09:24:21;;;;;;;17.00;12.90;;;;;;;12.83;74.12;99930.95;105874;1251;73648;-58
2023/04/11 09:27:09;;;;;;;16.50;13.20;;;;;;;12.80;73.71;99933.75;105791;1252;69092;-61
2023/04/11 09:29:50;;;;;;;17.60;14.00;;;;;;;12.78;73.68;99939.67;105800;1252;69200;-56
2023/04/11 09:32:52;;;;;;;;;;;;;;;;;;;;;
2023/04/11 09:35:29;;;;;;;22.10;14.10;;;;;;;12.73;73.34;99949.39;105958;1251;82960;-60
2023/04/11 09:38:13;;;;;;;16.60;13.00;;;;;;;12.74;73.81;99951.41;105804;1254;72558;-56
2023/04/11 09:40:58;;;;;;;;;;;;;;;;;;;;;
2023/04/11 09:43:50;;;;;;;24.10;14.70;;;;;;;12.86;73.80;99947.98;105720;1251;69182;-57
2023/04/11 09:46:24;;;;;;;18.30;13.10;;;;;;;12.87;73.42;99942.48;105772;1251;73996;-58
2023/04/11 09:48:56;;;;;;;18.30;14.00;;;;;;;12.87;73.40;99934.44;105738;1254;83475;-60
2023/04/11 09:51:35;;;;;;;19.40;13.70;;;;;;;12.85;73.13;99931.23;105749;1254;72738;-57
2023/04/11 09:54:18;;;;;;;19.90;14.70;;;;;;;12.79;73.03;99922.44;105715;1256;69209;-54
2023/04/11 09:56:50;;;;;;;19.40;14.50;;;;;;;12.64;72.66;99909.70;105638;1251;69191;-59
2023/04/11 09:59:25;;;;;;;20.60;15.80;;;;;;;12.54;72.78;99903.92;105695;1252;74126;-59
2023/04/11 10:01:59;;;;;;;20.90;16.20;;;;;;;12.52;72.95;99904.06;105612;1255;83499;-58
2023/04/11 10:04:39;;;;;;;20.10;13.90;;;;;;;12.52;73.19;99905.45;105802;1250;73726;-57
2023/04/11 10:07:23;;;;;;;16.00;11.80;;;;;;;12.55;73.07;99901.08;105718;1254;69179;-57
2023/04/11 10:09:59;;;;;;;18.50;12.50;;;;;;;12.59;73.34;99910.50;105834;1257;69210;-57
2023/04/11 10:12:54;;;;;;;19.20;14.40;;;;;;;12.59;73.09;99918.21;105832;1254;74066;-59
2023/04/11 10:15:34;;;;;;;16.50;13.00;;;;;;;12.56;72.81;99919.45;105758;1253;83768;-58
2023/04/11 10:18:29;;;;;;;16.40;13.10;;;;;;;12.52;72.74;99916.32;105791;1251;72755;-59
2023/04/11 10:21:04;;;;;;;16.80;13.20;;;;;;;12.45;73.01;99925.41;106006;1254;69246;-59
2023/04/11 10:24:15;;;;;;;18.30;13.40;;;;;;;12.34;73.19;99929.90;105940;1257;69189;-58
2023/04/11 10:27:08;;;;;;;14.40;10.30;;;;;;;12.08;72.97;99933.47;105944;1254;74195;-59
2023/04/11 10:30:03;;;;;;;;;;;;;;;;;;;;;
2023/04/11 10:36:56;;;;;;;;;;;;;;;;;;;;;
2023/04/11 10:40:51;;;;;;;11.70;8.20;;;;;;;10.43;74.61;99969.34;104950;1262;69263;-55
2023/04/11 10:44:52;;;;;;;9.50;6.70;;;;;;;9.86;76.17;99968.77;104539;1271;74486;-56
2023/04/11 10:48:25;;;;;;;9.40;6.00;;;;;;;9.57;77.93;99968.84;103985;1272;82429;-60
2023/04/11 10:52:26;;;;;;;6.90;5.30;;;;;;;9.50;78.99;99971.42;103512;1277;73952;-61
2023/04/11 10:55:41;;;;;;;7.50;5.50;;;;;;;9.37;79.93;99974.50;103512;1277;69152;-59
2023/04/11 10:59:09;;;;;;;;;;;;;;;;;;;;;
2023/04/11 11:06:12;;;;;;;10.20;7.30;;;;;;;8.95;81.68;99991.63;102308;1290;600937;-56
2023/04/11 11:09:32;;;;;;;;;;;;;;;;;;;;;
2023/04/11 11:12:37;;;;;;;5.20;3.10;;;;;;;8.53;82.43;100008.09;104564;1269;69192;-59
2023/04/11 11:15:52;;;;;;;5.10;3.20;;;;;;;8.24;82.29;100008.92;104704;1264;72762;-60
2023/04/11 11:19:21;;;;;;;18.50;10.70;;;;;;;7.94;82.68;100002.06;100846;1263;5446317;-62
2023/04/11 11:23:06;;;;;;;5.20;3.10;;;;;;;7.69;83.50;100015.73;104757;1266;74058;-62
2023/04/11 11:26:56;;;;;;;;;;;;;;;;;;;;;
2023/04/11 11:30:32;;;;;;;5.20;2.70;;;;;;;7.53;85.70;100027.01;104176;1270;69221;-58
2023/04/11 11:34:04;;;;;;;3.50;1.70;;;;;;;7.49;86.31;100028.33;103897;1276;72281;-60
2023/04/11 11:37:45;;;;;;;;;;;;;;;;;;;;;
2023/04/11 11:40:57;;;;;;;;;;;;;;;;;;;;;
2023/04/11 11:44:23;;;;;;;;;;;;;;;;;;;;;
2023/04/11 11:48:06;;;;;;;2.20;1.40;;;;;;;7.50;87.95;100018.56;103906;1280;69156;-60
2023/04/11 11:51:19;;;;;;;3.70;1.70;;;;;;;7.55;88.92;100018.23;103225;1281;73299;-60
2023/04/11 11:54:44;;;;;;;4.20;1.90;;;;;;;7.63;89.16;100013.66;103326;1286;83493;-60
2023/04/11 11:58:13;;;;;;;3.60;2.20;;;;;;;7.70;89.40;100009.09;102997;1281;72784;-60
2023/04/11 12:01:23;;;;;;;3.80;2.20;;;;;;;7.76;90.05;100003.86;104225;1271;69281;-57
2023/04/11 12:08:49;;;;;;;5.80;3.50;;;;;;;7.98;90.59;99993.06;104620;1266;73444;-59
2023/04/11 12:12:21;;;;;;;12.20;7.40;;;;;;;8.01;90.28;99992.95;104831;1264;83695;-60
2023/04/11 12:15:25;;;;;;;11.40;7.30;;;;;;;8.11;90.84;99991.41;104899;1265;73800;-61
2023/04/11 12:18:47;;;;;;;5.40;3.70;;;;;;;8.24;91.30;99990.45;104906;1263;69187;-59
2023/04/11 12:22:19;;;;;;;5.30;3.70;;;;;;;8.36;91.22;99985.88;104754;1260;69209;-58
2023/04/11 12:25:51;;;;;;;7.10;4.10;;;;;;;8.38;90.90;99983.54;104925;1260;73598;-59
2023/04/11 12:29:17;;;;;;;6.90;4.20;;;;;;;8.41;91.05;99979.46;105427;1253;83500;-60
2023/04/11 12:32:45;;;;;;;5.60;3.90;;;;;;;8.46;91.26;99981.73;104945;1262;73712;-61
2023/04/11 12:36:15;;;;;;;9.00;4.80;;;;;;;8.52;91.69;99977.51;104975;1264;69469;-60
2023/04/11 12:39:16;;;;;;;4.90;3.90;;;;;;;8.64;91.89;99984.40;104944;1262;69096;-61
2023/04/11 12:42:27;;;;;;;7.50;4.80;;;;;;;8.69;91.70;99989.07;105020;1260;73492;-61
2023/04/11 12:45:49;;;;;;;6.50;4.20;;;;;;;8.72;91.62;99991.41;104988;1262;83506;-60
2023/04/11 12:48:58;;;;;;;8.40;4.70;;;;;;;8.80;91.94;99996.33;104960;1260;73720;-60
2023/04/11 12:52:10;;;;;;;6.20;4.80;;;;;;;8.89;91.78;100000.55;104952;1260;69217;-62
2023/04/11 12:55:17;;;;;;;;;;;;;;;;;;;;;
2023/04/11 12:58:31;;;;;;;8.30;5.20;;;;;;;8.88;91.33;99995.38;105053;1261;73480;-60
2023/04/11 13:01:29;;;;;;;7.60;4.90;;;;;;;8.85;92.07;99994.10;104917;1265;83371;-61
2023/04/11 13:05:05;;;;;;;7.70;5.40;;;;;;;8.77;91.46;99992.98;105393;1254;74769;-61
2023/04/11 13:08:23;;;;;;;7.50;5.10;;;;;;;8.69;91.58;99992.58;105403;1253;69103;-60
2023/04/11 13:11:25;;;;;;;5.70;4.20;;;;;;;8.64;91.90;99992.41;105468;1254;69182;-61
2023/04/11 13:14:40;;;;;;;;;;;;;;;8.62;91.77;99998.41;105450;1259;73408;-62
2023/04/11 13:17:33;;;;;;;5.00;3.60;;;;;;;8.62;92.43;99998.91;105399;1257;83317;-60
2023/04/11 13:20:37;;;;;;;6.30;3.80;;;;;;;8.77;93.08;100000.83;105351;1254;73824;-61
2023/04/11 13:23:33;;;;;;;8.10;4.40;;;;;;;8.90;93.38;100005.94;105333;1257;69208;-59
2023/04/11 13:26:25;;;;;;;5.20;3.60;;;;;;;9.00;93.28;100009.93;105328;1254;69157;-61
2023/04/11 13:29:20;;;;;;;4.50;3.50;;;;;;;9.04;92.52;100008.20;105545;1257;72384;-60
2023/04/11 13:32:19;;;;;;;4.50;2.90;;;;;;;9.09;92.83;100012.55;105750;1254;83401;-62
2023/04/11 13:35:17;;;;;;;3.80;2.20;;;;;;;9.13;92.57;100004.23;105457;1257;72787;-61
2023/04/11 13:38:17;;;;;;;3.70;1.90;;;;;;;9.18;92.49;100005.44;105447;1257;69029;-61
2023/04/11 13:41:16;;;;;;;2.50;1.70;;;;;;;9.18;92.23;100003.86;105457;1254;69208;-61
2023/04/11 13:44:10;;;;;;;1.90;1.20;;;;;;;9.12;92.03;100005.98;105475;1257;71824;-61
2023/04/11 13:47:04;;;;;;;2.30;1.30;;;;;;;9.02;91.69;100008.82;105516;1254;82297;-63
2023/04/11 13:49:47;;;;;;;3.30;1.80;;;;;;;8.91;91.86;100009.55;105756;1255;73659;-62
2023/04/11 13:52:48;;;;;;;;;;;;;;;;;;;;;
2023/04/11 13:55:56;;;;;;;3.40;2.20;;;;;;;8.78;91.64;100006.55;105457;1257;69532;-60
2023/04/11 13:58:56;;;;;;;2.50;1.30;;;;;;;8.72;91.93;100001.70;105455;1257;71236;-60
2023/04/11 14:02:23;;;;;;;5.10;2.00;;;;;;;8.76;92.29;99999.48;105411;1258;83268;-62
2023/04/11 14:05:30;;;;;;;2.70;1.40;;;;;;;8.79;92.25;99997.98;105434;1259;73248;-64
2023/04/11 14:08:42;;;;;;;;;;;;;;;;;;;;;
2023/04/11 14:11:42;;;;;;;5.30;1.50;;;;;;;9.00;92.71;99994.95;105433;1257;69281;-63
2023/04/11 14:14:33;;;;;;;3.70;2.10;;;;;;;9.09;92.76;99997.55;105622;1254;73089;-60
2023/04/11 14:17:28;;;;;;;3.70;1.80;;;;;;;9.19;92.82;99999.45;105393;1258;83539;-62
2023/04/11 14:20:26;;;;;;;2.40;1.70;;;;;;;9.33;93.15;100002.23;105319;1254;73781;-60
2023/04/11 14:23:15;;;;;;;3.50;2.30;;;;;;;9.36;92.69;99998.27;105580;1255;69130;-60
2023/04/11 14:26:14;;;;;;;3.70;2.40;;;;;;;9.51;92.52;99996.47;105300;1254;69182;-61
2023/04/11 14:29:08;;;;;;;2.90;2.00;;;;;;;9.80;92.99;99990.80;105588;1254;73246;-61
2023/04/11 14:32:00;;;;;;;8.00;3.90;;;;;;;10.19;92.64;99990.23;105477;1257;83495;-60
2023/04/11 14:34:51;;;;;;;15.00;10.60;;;;;;;10.52;92.11;99992.18;105454;1254;72797;-61
2023/04/11 14:37:43;;;;;;;5.60;2.70;;;;;;;10.76;92.03;99990.61;105422;1257;69189;-63
2023/04/11 14:40:20;;;;;;;2.80;2.00;;;;;;;10.95;91.33;99986.98;105478;1257;69172;-61
2023/04/11 14:43:09;;;;;;;6.60;4.90;;;;;;;11.06;91.19;99989.80;105567;1255;72314;-58
2023/04/11 14:45:47;;;;;;;4.20;2.70;;;;;;;11.05;90.79;99994.92;105498;1257;83009;-62
2023/04/11 14:48:33;;;;;;;4.70;2.50;;;;;;;10.95;90.69;100000.59;105529;1253;72694;-60
2023/04/11 14:51:12;;;;;;;4.00;2.90;;;;;;;10.76;90.06;100001.43;107791;1257;69215;-60
2023/04/11 14:54:15;;;;;;;29.20;21.40;;;;;;;10.48;89.57;100014.55;105454;1257;69182;-60
2023/04/11 14:57:22;;;;;;;;;;;;;;;;;;;;;
2023/04/11 15:03:54;;;;;;;6.60;2.90;;;;;;;8.86;87.48;100018.46;105479;1254;73821;-60
2023/04/11 15:06:55;;;;;;;3.70;2.10;;;;;;;8.54;88.59;100012.81;105431;1254;69134;-58
2023/04/11 15:09:47;;;;;;;4.10;2.10;;;;;;;8.49;89.84;100012.26;105474;1254;69205;-61
2023/04/11 15:12:54;;;;;;;5.10;1.70;;;;;;;9.13;91.15;100009.63;105455;1254;73184;-59
2023/04/11 15:15:35;;;;;;;3.70;2.10;;;;;;;9.45;90.78;100014.00;105439;1254;83924;-63
2023/04/11 15:18:32;;;;;;;5.80;3.00;;;;;;;9.58;91.07;100012.57;105472;1254;73744;-59